Chugiak, AK (99567)

7:17 AM AKDT on September 02, 2014 (GMT -0800)
Northwoods | Change Station
CLOSE
Current Station
Personal Weather Station
Location: Chugiak, AK
Elevation: 370 ft
Nearby Weather Stations

Elev 370 ft 61.42 °N, 149.45 °W | Updated 12 seconds ago

Overcast
Overcast
50.3 °F
Feels Like 50.3 °F
N
0.0
Wind Variable Wind from ESE
Gusts 0.0 mph

Today
High -- | Low -- °F
--% Chance of Precip.
Yesterday
High -- | Low -- °F
Precip. -- in
6:52 AM 9:01 PM
First Quarter, 52% visible
Pressure 29.87 in
Visibility 10.0 miles
Clouds Overcast 6000 ft
Dew Point 48 °F
Humidity 90%
Rainfall 0.00 in
Snow Depth 1 in
UV 0.0 out of 12
Pollen Not available.
Air Quality Not available.
Flu Activity Not available.
METAR PABV 021456Z AUTO 15003KT 10SM OVC060 09/07 A2987 RMK AO1 57003

More Conditions Fewer Conditions

Pressure 29.87 in
Visibility 10.0 miles
Clouds Overcast 6000 ft
Dew Point 48 °F
Humidity 90%
Rainfall 0.00 in
Snow Depth 1 in
UV 0.0 out of 12
Pollen Not available.
Air Quality Not available.
Flu Activity Not available.
METAR PABV 021456Z AUTO 15003KT 10SM OVC060 09/07 A2987 RMK AO1 57003

More Conditions Fewer Conditions

10-Day Weather Forecast

Almanac

Astronomy

Sep. 02, 2014 Rise Set
Actual Time 6:52 AM AKDT 9:01 PM AKDT
Civil Twilight 6:04 AM AKDT 9:47 PM AKDT
Nautical Twilight 5:02 AM AKDT 10:49 PM AKDT
Astronomical Twilight 3:38 AM AKDT 12:10 AM AKDT
Moon 4:51 PM AKDT 11:59 PM AKDT
Length of Visible Light 15h 42m
Length of Day
14h 09m
Tomorrow will be 5m 43s shorter.
First Quarter, 52% of the Moon is Illuminated
Today
First Quarter
Sep 8
Full
Sep 15
Last Quarter
Sep 24
New
Oct 1
First Quarter

Today's Extremes

State Highs State Lows

Community

WunderPhotos

Upload Photos

1,749,690 photos uploaded!

Nearby

Snow Depth

Station Depth Elevation
Point Mackenzie 1 in 200 ft
Indian Pass 1 in 2300 ft
Turnagain Pass 1 in 1880 ft
Susitna Valley High 2 in 375 ft
Summit Creek 0 in 1400 ft

Earthquake Activity

City Distance Mag. Time & Date
No recent earthquake activity has been reported nearby.
Minimum magnitude displayed is 2.5.

Coastal Water Temperatures

Place Temperature
No Stations Reporting

Nearby Weather Stations